sensor_id;sensor_type;location;lat;lon;timestamp;P1;durP1;ratioP1;P2;durP2;ratioP2
49876;SDS011;35771;48.978;9.294;2023-03-15T07:37:55;100.15;;;68.30;;
49876;SDS011;35771;48.978;9.294;2023-03-15T07:41:29;106.57;;;69.97;;
49876;SDS011;35771;48.978;9.294;2023-03-15T07:43:56;107.13;;;68.03;;
49876;SDS011;35771;48.978;9.294;2023-03-15T07:46:22;109.78;;;70.22;;
49876;SDS011;35771;48.978;9.294;2023-03-15T07:48:50;110.25;;;68.53;;
49876;SDS011;35771;48.978;9.294;2023-03-15T07:51:16;119.28;;;71.05;;
49876;SDS011;35771;48.978;9.294;2023-03-15T07:53:43;114.22;;;71.35;;
49876;SDS011;35771;48.978;9.294;2023-03-15T07:56:10;103.30;;;69.28;;
49876;SDS011;35771;48.978;9.294;2023-03-15T07:58:37;111.03;;;71.78;;
49876;SDS011;35771;48.978;9.294;2023-03-15T08:01:04;106.97;;;69.55;;
49876;SDS011;35771;48.978;9.294;2023-03-15T08:03:31;104.78;;;68.40;;
49876;SDS011;35771;48.978;9.294;2023-03-15T08:05:57;115.88;;;71.88;;
49876;SDS011;35771;48.978;9.294;2023-03-15T08:08:24;112.05;;;69.25;;
49876;SDS011;35771;48.978;9.294;2023-03-15T08:10:51;103.78;;;68.05;;
49876;SDS011;35771;48.978;9.294;2023-03-15T08:13:17;104.75;;;68.88;;
49876;SDS011;35771;48.978;9.294;2023-03-15T08:15:45;112.85;;;68.70;;
49876;SDS011;35771;48.978;9.294;2023-03-15T08:18:13;108.10;;;68.13;;
49876;SDS011;35771;48.978;9.294;2023-03-15T08:20:39;99.15;;;66.82;;
49876;SDS011;35771;48.978;9.294;2023-03-15T08:23:06;105.10;;;68.10;;
49876;SDS011;35771;48.978;9.294;2023-03-15T08:25:33;98.47;;;66.72;;
49876;SDS011;35771;48.978;9.294;2023-03-15T08:28:00;104.13;;;67.72;;
49876;SDS011;35771;48.978;9.294;2023-03-15T08:30:27;101.07;;;66.95;;
49876;SDS011;35771;48.978;9.294;2023-03-15T08:32:55;103.78;;;69.07;;
49876;SDS011;35771;48.978;9.294;2023-03-15T08:35:21;103.05;;;67.55;;
49876;SDS011;35771;48.978;9.294;2023-03-15T08:37:49;112.85;;;69.80;;
49876;SDS011;35771;48.978;9.294;2023-03-15T08:40:17;103.28;;;67.38;;
49876;SDS011;35771;48.978;9.294;2023-03-15T08:42:48;110.88;;;70.63;;
49876;SDS011;35771;48.978;9.294;2023-03-15T08:45:15;107.22;;;67.38;;
49876;SDS011;35771;48.978;9.294;2023-03-15T08:47:42;104.57;;;67.68;;
49876;SDS011;35771;48.978;9.294;2023-03-15T08:50:11;102.53;;;67.05;;
49876;SDS011;35771;48.978;9.294;2023-03-15T08:55:06;102.57;;;68.88;;
49876;SDS011;35771;48.978;9.294;2023-03-15T08:57:33;108.38;;;69.15;;
49876;SDS011;35771;48.978;9.294;2023-03-15T09:00:00;120.38;;;73.82;;
49876;SDS011;35771;48.978;9.294;2023-03-15T09:02:31;103.60;;;67.65;;
49876;SDS011;35771;48.978;9.294;2023-03-15T09:04:58;102.85;;;68.35;;
49876;SDS011;35771;48.978;9.294;2023-03-15T09:07:26;108.43;;;67.45;;
49876;SDS011;35771;48.978;9.294;2023-03-15T09:09:52;102.85;;;68.03;;
49876;SDS011;35771;48.978;9.294;2023-03-15T09:12:19;114.75;;;73.22;;
49876;SDS011;35771;48.978;9.294;2023-03-15T09:14:46;101.90;;;68.22;;
49876;SDS011;35771;48.978;9.294;2023-03-15T09:17:13;103.85;;;67.70;;
49876;SDS011;35771;48.978;9.294;2023-03-15T09:19:39;115.35;;;72.32;;
49876;SDS011;35771;48.978;9.294;2023-03-15T09:22:06;117.03;;;74.07;;
49876;SDS011;35771;48.978;9.294;2023-03-15T09:24:34;105.93;;;69.07;;
49876;SDS011;35771;48.978;9.294;2023-03-15T10:03:28;109.03;;;70.65;;
49876;SDS011;35771;48.978;9.294;2023-03-15T10:06:01;113.32;;;96.03;;
49876;SDS011;35771;48.978;9.294;2023-03-15T10:08:32;109.93;;;69.97;;
49876;SDS011;35771;48.978;9.294;2023-03-15T10:11:02;114.70;;;70.70;;
49876;SDS011;35771;48.978;9.294;2023-03-15T10:13:40;114.60;;;71.88;;
49876;SDS011;35771;48.978;9.294;2023-03-15T10:18:52;116.50;;;73.93;;
49876;SDS011;35771;48.978;9.294;2023-03-15T10:21:30;115.68;;;71.45;;
49876;SDS011;35771;48.978;9.294;2023-03-15T10:24:03;115.63;;;72.88;;
49876;SDS011;35771;48.978;9.294;2023-03-15T10:26:37;126.35;;;73.03;;
49876;SDS011;35771;48.978;9.294;2023-03-15T10:29:08;119.55;;;73.35;;
49876;SDS011;35771;48.978;9.294;2023-03-15T10:31:38;112.97;;;72.40;;
49876;SDS011;35771;48.978;9.294;2023-03-15T10:34:09;135.80;;;79.45;;
49876;SDS011;35771;48.978;9.294;2023-03-15T10:36:36;116.50;;;72.60;;
49876;SDS011;35771;48.978;9.294;2023-03-15T10:39:03;119.00;;;73.63;;
49876;SDS011;35771;48.978;9.294;2023-03-15T10:41:35;117.07;;;71.85;;
49876;SDS011;35771;48.978;9.294;2023-03-15T10:44:04;117.43;;;73.50;;
49876;SDS011;35771;48.978;9.294;2023-03-15T10:46:32;112.13;;;71.03;;
49876;SDS011;35771;48.978;9.294;2023-03-15T10:49:07;114.68;;;72.63;;
49876;SDS011;35771;48.978;9.294;2023-03-15T10:51:37;114.82;;;71.60;;
49876;SDS011;35771;48.978;9.294;2023-03-15T10:54:10;117.30;;;73.82;;
49876;SDS011;35771;48.978;9.294;2023-03-15T10:56:42;113.97;;;71.28;;
49876;SDS011;35771;48.978;9.294;2023-03-15T10:59:13;111.45;;;71.32;;
49876;SDS011;35771;48.978;9.294;2023-03-15T11:01:41;116.72;;;72.30;;
49876;SDS011;35771;48.978;9.294;2023-03-15T11:04:15;112.57;;;71.53;;
49876;SDS011;35771;48.978;9.294;2023-03-15T11:06:44;125.53;;;75.75;;
49876;SDS011;35771;48.978;9.294;2023-03-15T11:09:13;129.73;;;78.45;;
49876;SDS011;35771;48.978;9.294;2023-03-15T11:11:48;111.50;;;71.47;;
49876;SDS011;35771;48.978;9.294;2023-03-15T11:14:17;114.57;;;72.90;;
49876;SDS011;35771;48.978;9.294;2023-03-15T11:16:45;112.85;;;71.80;;
49876;SDS011;35771;48.978;9.294;2023-03-15T11:19:16;110.88;;;71.43;;
49876;SDS011;35771;48.978;9.294;2023-03-15T11:21:45;106.88;;;70.43;;
49876;SDS011;35771;48.978;9.294;2023-03-15T11:24:24;125.13;;;75.90;;
49876;SDS011;35771;48.978;9.294;2023-03-15T11:26:53;110.03;;;70.55;;
49876;SDS011;35771;48.978;9.294;2023-03-15T11:29:22;113.63;;;72.25;;
49876;SDS011;35771;48.978;9.294;2023-03-15T11:31:51;104.57;;;68.85;;
49876;SDS011;35771;48.978;9.294;2023-03-15T11:34:23;110.97;;;71.43;;
49876;SDS011;35771;48.978;9.294;2023-03-15T11:36:57;111.22;;;70.50;;
49876;SDS011;35771;48.978;9.294;2023-03-15T11:39:31;119.18;;;72.95;;
49876;SDS011;35771;48.978;9.294;2023-03-15T11:42:04;121.25;;;74.65;;
49876;SDS011;35771;48.978;9.294;2023-03-15T11:44:36;109.55;;;71.32;;
49876;SDS011;35771;48.978;9.294;2023-03-15T11:47:07;114.15;;;72.68;;
49876;SDS011;35771;48.978;9.294;2023-03-15T11:49:41;113.43;;;71.03;;
49876;SDS011;35771;48.978;9.294;2023-03-15T11:52:14;119.60;;;75.72;;
49876;SDS011;35771;48.978;9.294;2023-03-15T11:54:44;123.68;;;75.50;;
49876;SDS011;35771;48.978;9.294;2023-03-15T12:00:17;102.05;;;67.85;;
49876;SDS011;35771;48.978;9.294;2023-03-15T12:23:29;108.72;;;70.10;;
49876;SDS011;35771;48.978;9.294;2023-03-15T12:26:04;106.45;;;69.60;;
49876;SDS011;35771;48.978;9.294;2023-03-15T12:28:34;105.68;;;69.00;;
49876;SDS011;35771;48.978;9.294;2023-03-15T12:31:03;107.03;;;70.03;;
49876;SDS011;35771;48.978;9.294;2023-03-15T12:33:33;115.00;;;73.05;;
49876;SDS011;35771;48.978;9.294;2023-03-15T12:36:15;103.97;;;69.35;;
49876;SDS011;35771;48.978;9.294;2023-03-15T12:38:57;118.28;;;75.25;;
49876;SDS011;35771;48.978;9.294;2023-03-15T12:41:33;116.15;;;73.80;;
49876;SDS011;35771;48.978;9.294;2023-03-15T12:44:16;107.47;;;70.60;;
49876;SDS011;35771;48.978;9.294;2023-03-15T12:46:57;117.55;;;74.45;;
49876;SDS011;35771;48.978;9.294;2023-03-15T12:49:29;107.85;;;70.82;;
49876;SDS011;35771;48.978;9.294;2023-03-15T12:52:03;116.32;;;74.28;;
49876;SDS011;35771;48.978;9.294;2023-03-15T12:54:36;112.40;;;71.63;;
49876;SDS011;35771;48.978;9.294;2023-03-15T12:57:08;116.20;;;72.30;;
49876;SDS011;35771;48.978;9.294;2023-03-15T12:59:47;114.80;;;72.63;;
49876;SDS011;35771;48.978;9.294;2023-03-15T13:02:21;128.70;;;79.57;;
49876;SDS011;35771;48.978;9.294;2023-03-15T13:04:57;106.22;;;69.90;;
49876;SDS011;35771;48.978;9.294;2023-03-15T13:07:26;117.30;;;74.60;;
49876;SDS011;35771;48.978;9.294;2023-03-15T13:16:16;128.93;;;76.50;;
49876;SDS011;35771;48.978;9.294;2023-03-15T13:18:53;116.13;;;71.78;;
49876;SDS011;35771;48.978;9.294;2023-03-15T13:21:30;128.57;;;76.25;;
49876;SDS011;35771;48.978;9.294;2023-03-15T13:24:00;143.55;;;83.03;;
49876;SDS011;35771;48.978;9.294;2023-03-15T13:26:32;130.90;;;78.22;;
49876;SDS011;35771;48.978;9.294;2023-03-15T13:29:08;133.55;;;79.05;;
49876;SDS011;35771;48.978;9.294;2023-03-15T13:31:39;120.05;;;73.68;;
49876;SDS011;35771;48.978;9.294;2023-03-15T13:47:42;126.03;;;76.68;;
49876;SDS011;35771;48.978;9.294;2023-03-15T13:50:12;123.80;;;74.40;;
49876;SDS011;35771;48.978;9.294;2023-03-15T13:52:40;130.73;;;76.93;;
49876;SDS011;35771;48.978;9.294;2023-03-15T13:55:08;130.70;;;78.55;;
49876;SDS011;35771;48.978;9.294;2023-03-15T13:57:38;125.95;;;75.55;;
49876;SDS011;35771;48.978;9.294;2023-03-15T14:00:06;128.93;;;77.75;;
49876;SDS011;35771;48.978;9.294;2023-03-15T14:02:36;130.30;;;78.28;;
49876;SDS011;35771;48.978;9.294;2023-03-15T14:05:14;130.93;;;77.60;;
49876;SDS011;35771;48.978;9.294;2023-03-15T14:07:44;126.25;;;75.50;;
49876;SDS011;35771;48.978;9.294;2023-03-15T14:49:03;144.35;;;85.55;;
49876;SDS011;35771;48.978;9.294;2023-03-15T14:51:29;126.22;;;76.07;;
49876;SDS011;35771;48.978;9.294;2023-03-15T14:53:57;123.93;;;75.50;;
49876;SDS011;35771;48.978;9.294;2023-03-15T14:56:25;127.88;;;76.93;;
49876;SDS011;35771;48.978;9.294;2023-03-15T14:58:51;133.85;;;79.38;;
49876;SDS011;35771;48.978;9.294;2023-03-15T15:01:19;123.30;;;75.15;;
49876;SDS011;35771;48.978;9.294;2023-03-15T15:03:49;123.05;;;74.28;;
49876;SDS011;35771;48.978;9.294;2023-03-15T15:06:20;120.07;;;74.25;;
49876;SDS011;35771;48.978;9.294;2023-03-15T15:08:47;120.72;;;74.10;;
49876;SDS011;35771;48.978;9.294;2023-03-15T15:11:16;127.25;;;78.25;;
49876;SDS011;35771;48.978;9.294;2023-03-15T15:13:43;117.88;;;73.30;;
49876;SDS011;35771;48.978;9.294;2023-03-15T15:16:10;125.22;;;76.35;;
49876;SDS011;35771;48.978;9.294;2023-03-15T15:18:37;131.68;;;78.47;;
49876;SDS011;35771;48.978;9.294;2023-03-15T15:21:06;132.65;;;79.68;;
49876;SDS011;35771;48.978;9.294;2023-03-15T15:23:39;119.60;;;73.90;;
49876;SDS011;35771;48.978;9.294;2023-03-15T15:26:11;123.90;;;76.45;;
49876;SDS011;35771;48.978;9.294;2023-03-15T15:28:42;124.35;;;75.88;;
49876;SDS011;35771;48.978;9.294;2023-03-15T15:31:09;118.63;;;72.93;;
49876;SDS011;35771;48.978;9.294;2023-03-15T15:33:40;123.55;;;76.65;;
49876;SDS011;35771;48.978;9.294;2023-03-15T15:36:09;123.47;;;76.35;;
49876;SDS011;35771;48.978;9.294;2023-03-15T15:38:39;126.63;;;81.20;;
49876;SDS011;35771;48.978;9.294;2023-03-15T15:41:11;124.68;;;77.15;;
49876;SDS011;35771;48.978;9.294;2023-03-15T15:43:39;121.28;;;77.38;;
49876;SDS011;35771;48.978;9.294;2023-03-15T15:46:07;125.53;;;76.65;;
49876;SDS011;35771;48.978;9.294;2023-03-15T15:48:35;131.27;;;80.95;;
49876;SDS011;35771;48.978;9.294;2023-03-15T15:51:02;126.00;;;81.75;;
49876;SDS011;35771;48.978;9.294;2023-03-15T15:53:46;119.63;;;74.88;;
49876;SDS011;35771;48.978;9.294;2023-03-15T15:56:13;124.93;;;73.60;;
49876;SDS011;35771;48.978;9.294;2023-03-15T15:58:40;122.72;;;76.90;;
49876;SDS011;35771;48.978;9.294;2023-03-15T16:01:08;123.88;;;76.32;;
49876;SDS011;35771;48.978;9.294;2023-03-15T16:03:37;118.30;;;73.20;;
49876;SDS011;35771;48.978;9.294;2023-03-15T16:06:03;120.97;;;73.82;;
49876;SDS011;35771;48.978;9.294;2023-03-15T16:08:31;124.15;;;75.50;;
49876;SDS011;35771;48.978;9.294;2023-03-15T16:11:03;125.93;;;76.93;;
49876;SDS011;35771;48.978;9.294;2023-03-15T16:13:30;122.57;;;75.97;;
49876;SDS011;35771;48.978;9.294;2023-03-15T16:15:57;117.43;;;72.78;;
49876;SDS011;35771;48.978;9.294;2023-03-15T16:18:24;120.13;;;72.82;;
49876;SDS011;35771;48.978;9.294;2023-03-15T16:20:50;126.85;;;76.65;;
49876;SDS011;35771;48.978;9.294;2023-03-15T16:23:18;113.72;;;70.22;;
49876;SDS011;35771;48.978;9.294;2023-03-15T16:25:50;133.20;;;80.45;;
49876;SDS011;35771;48.978;9.294;2023-03-15T16:28:21;119.03;;;73.25;;
49876;SDS011;35771;48.978;9.294;2023-03-15T16:30:48;121.00;;;74.80;;
49876;SDS011;35771;48.978;9.294;2023-03-15T16:33:16;117.18;;;72.45;;
49876;SDS011;35771;48.978;9.294;2023-03-15T16:35:44;124.55;;;72.90;;
49876;SDS011;35771;48.978;9.294;2023-03-15T16:38:13;120.75;;;74.55;;
49876;SDS011;35771;48.978;9.294;2023-03-15T16:40:42;120.32;;;73.75;;
49876;SDS011;35771;48.978;9.294;2023-03-15T16:43:10;119.35;;;75.30;;
49876;SDS011;35771;48.978;9.294;2023-03-15T16:45:39;117.30;;;74.70;;
49876;SDS011;35771;48.978;9.294;2023-03-15T16:48:06;125.00;;;76.28;;
49876;SDS011;35771;48.978;9.294;2023-03-15T16:50:32;121.13;;;74.63;;
49876;SDS011;35771;48.978;9.294;2023-03-15T16:53:00;137.95;;;83.35;;
49876;SDS011;35771;48.978;9.294;2023-03-15T16:55:30;118.40;;;74.53;;
49876;SDS011;35771;48.978;9.294;2023-03-15T16:57:58;127.55;;;77.47;;
49876;SDS011;35771;48.978;9.294;2023-03-15T17:00:25;123.60;;;78.60;;
49876;SDS011;35771;48.978;9.294;2023-03-15T17:02:53;117.93;;;74.32;;
49876;SDS011;35771;48.978;9.294;2023-03-15T17:05:23;124.45;;;74.88;;
49876;SDS011;35771;48.978;9.294;2023-03-15T17:07:51;148.48;;;87.00;;
49876;SDS011;35771;48.978;9.294;2023-03-15T17:10:21;147.27;;;86.35;;
49876;SDS011;35771;48.978;9.294;2023-03-15T17:12:48;122.90;;;75.57;;
49876;SDS011;35771;48.978;9.294;2023-03-15T17:15:16;120.63;;;73.97;;
49876;SDS011;35771;48.978;9.294;2023-03-15T17:17:44;133.68;;;80.85;;
49876;SDS011;35771;48.978;9.294;2023-03-15T17:20:13;126.60;;;77.68;;
49876;SDS011;35771;48.978;9.294;2023-03-15T17:22:45;136.20;;;81.78;;
49876;SDS011;35771;48.978;9.294;2023-03-15T17:25:13;126.60;;;78.30;;
49876;SDS011;35771;48.978;9.294;2023-03-15T17:27:40;134.77;;;79.53;;
49876;SDS011;35771;48.978;9.294;2023-03-15T17:30:13;123.30;;;76.10;;
49876;SDS011;35771;48.978;9.294;2023-03-15T17:32:42;128.85;;;77.30;;
49876;SDS011;35771;48.978;9.294;2023-03-15T17:35:09;133.77;;;79.70;;
49876;SDS011;35771;48.978;9.294;2023-03-15T17:37:37;136.35;;;80.47;;
49876;SDS011;35771;48.978;9.294;2023-03-15T17:40:10;125.72;;;76.22;;
49876;SDS011;35771;48.978;9.294;2023-03-15T17:42:43;129.38;;;76.97;;
49876;SDS011;35771;48.978;9.294;2023-03-15T17:45:13;130.93;;;78.18;;
49876;SDS011;35771;48.978;9.294;2023-03-15T17:47:40;135.13;;;80.18;;
49876;SDS011;35771;48.978;9.294;2023-03-15T17:50:07;121.22;;;75.30;;
49876;SDS011;35771;48.978;9.294;2023-03-15T17:52:35;138.20;;;82.50;;
49876;SDS011;35771;48.978;9.294;2023-03-15T17:55:04;132.75;;;80.55;;
49876;SDS011;35771;48.978;9.294;2023-03-15T17:57:31;132.73;;;78.83;;
49876;SDS011;35771;48.978;9.294;2023-03-15T17:59:58;124.55;;;76.90;;
49876;SDS011;35771;48.978;9.294;2023-03-15T18:02:24;120.00;;;74.00;;
49876;SDS011;35771;48.978;9.294;2023-03-15T18:04:51;125.05;;;76.65;;
49876;SDS011;35771;48.978;9.294;2023-03-15T18:07:18;119.82;;;74.00;;
49876;SDS011;35771;48.978;9.294;2023-03-15T18:09:45;125.40;;;75.78;;
49876;SDS011;35771;48.978;9.294;2023-03-15T18:12:14;126.90;;;77.97;;
